sensor_id;sensor_type;location;lat;lon;timestamp;temperature;humidity
30336;DHT22;17142;47.990;7.846;2023-09-18T04:15:03;17.80;99.90
30336;DHT22;17142;47.990;7.846;2023-09-18T04:17:32;17.70;99.90
30336;DHT22;17142;47.990;7.846;2023-09-18T04:19:57;17.70;99.90
30336;DHT22;17142;47.990;7.846;2023-09-18T04:22:23;17.60;99.90
30336;DHT22;17142;47.990;7.846;2023-09-18T04:24:51;17.60;99.90
30336;DHT22;17142;47.990;7.846;2023-09-18T04:27:16;17.60;99.90
30336;DHT22;17142;47.990;7.846;2023-09-18T04:29:42;17.60;99.90
30336;DHT22;17142;47.990;7.846;2023-09-18T04:32:10;17.50;99.90
30336;DHT22;17142;47.990;7.846;2023-09-18T04:34:36;17.50;99.90
30336;DHT22;17142;47.990;7.846;2023-09-18T04:37:04;17.60;99.90
30336;DHT22;17142;47.990;7.846;2023-09-18T04:39:29;17.50;99.90
30336;DHT22;17142;47.990;7.846;2023-09-18T04:41:55;17.50;99.90
30336;DHT22;17142;47.990;7.846;2023-09-18T04:44:21;17.50;99.90
30336;DHT22;17142;47.990;7.846;2023-09-18T04:46:46;17.60;99.90
30336;DHT22;17142;47.990;7.846;2023-09-18T04:49:14;17.60;99.90
30336;DHT22;17142;47.990;7.846;2023-09-18T04:51:41;17.60;99.90
30336;DHT22;17142;47.990;7.846;2023-09-18T04:54:11;17.60;99.90
30336;DHT22;17142;47.990;7.846;2023-09-18T04:56:37;17.60;99.90
30336;DHT22;17142;47.990;7.846;2023-09-18T04:59:03;17.60;99.90
30336;DHT22;17142;47.990;7.846;2023-09-18T05:01:29;17.60;99.90
30336;DHT22;17142;47.990;7.846;2023-09-18T05:03:55;17.60;99.90
30336;DHT22;17142;47.990;7.846;2023-09-18T05:06:23;17.60;99.90
30336;DHT22;17142;47.990;7.846;2023-09-18T05:08:49;17.60;99.90
30336;DHT22;17142;47.990;7.846;2023-09-18T05:11:15;17.60;99.90
30336;DHT22;17142;47.990;7.846;2023-09-18T05:13:42;17.60;99.90
30336;DHT22;17142;47.990;7.846;2023-09-18T05:16:07;17.50;99.90
30336;DHT22;17142;47.990;7.846;2023-09-18T05:18:33;17.50;99.90
30336;DHT22;17142;47.990;7.846;2023-09-18T05:20:59;17.50;99.90
30336;DHT22;17142;47.990;7.846;2023-09-18T05:23:24;17.60;99.90
30336;DHT22;17142;47.990;7.846;2023-09-18T05:25:50;17.60;99.90
30336;DHT22;17142;47.990;7.846;2023-09-18T05:28:16;17.60;99.90
30336;DHT22;17142;47.990;7.846;2023-09-18T05:30:42;17.60;99.90
30336;DHT22;17142;47.990;7.846;2023-09-18T05:33:07;17.50;99.90
30336;DHT22;17142;47.990;7.846;2023-09-18T05:35:41;17.60;99.90
30336;DHT22;17142;47.990;7.846;2023-09-18T05:38:13;17.60;99.90
30336;DHT22;17142;47.990;7.846;2023-09-18T05:40:40;17.60;99.90
30336;DHT22;17142;47.990;7.846;2023-09-18T05:43:08;17.60;99.90
30336;DHT22;17142;47.990;7.846;2023-09-18T05:45:35;17.60;99.90
30336;DHT22;17142;47.990;7.846;2023-09-18T05:48:01;17.60;99.90
30336;DHT22;17142;47.990;7.846;2023-09-18T05:50:30;17.60;99.90
30336;DHT22;17142;47.990;7.846;2023-09-18T05:52:57;17.60;99.90
30336;DHT22;17142;47.990;7.846;2023-09-18T05:55:30;17.60;99.90
30336;DHT22;17142;47.990;7.846;2023-09-18T05:57:56;17.60;99.90
30336;DHT22;17142;47.990;7.846;2023-09-18T06:00:23;17.60;99.90
30336;DHT22;17142;47.990;7.846;2023-09-18T06:02:51;17.60;99.90
30336;DHT22;17142;47.990;7.846;2023-09-18T06:05:20;17.60;99.90
30336;DHT22;17142;47.990;7.846;2023-09-18T06:07:51;17.70;99.90
30336;DHT22;17142;47.990;7.846;2023-09-18T06:10:17;17.70;99.90
30336;DHT22;17142;47.990;7.846;2023-09-18T06:12:43;17.70;99.90
30336;DHT22;17142;47.990;7.846;2023-09-18T06:15:10;17.70;99.90
30336;DHT22;17142;47.990;7.846;2023-09-18T06:17:40;17.70;99.90
30336;DHT22;17142;47.990;7.846;2023-09-18T06:20:09;17.70;99.90
30336;DHT22;17142;47.990;7.846;2023-09-18T06:22:39;17.70;99.90
30336;DHT22;17142;47.990;7.846;2023-09-18T06:25:08;17.60;99.90
30336;DHT22;17142;47.990;7.846;2023-09-18T06:27:35;17.60;99.90
30336;DHT22;17142;47.990;7.846;2023-09-18T06:30:07;17.60;99.90
30336;DHT22;17142;47.990;7.846;2023-09-18T06:32:33;17.60;99.90
30336;DHT22;17142;47.990;7.846;2023-09-18T06:34:59;17.60;99.90
30336;DHT22;17142;47.990;7.846;2023-09-18T06:37:25;17.60;99.90
30336;DHT22;17142;47.990;7.846;2023-09-18T06:39:51;17.60;99.90
30336;DHT22;17142;47.990;7.846;2023-09-18T06:42:17;17.60;99.90
30336;DHT22;17142;47.990;7.846;2023-09-18T06:44:43;17.60;99.90
30336;DHT22;17142;47.990;7.846;2023-09-18T06:47:08;17.50;99.90
30336;DHT22;17142;47.990;7.846;2023-09-18T06:49:34;17.50;99.90
30336;DHT22;17142;47.990;7.846;2023-09-18T06:52:02;17.50;99.90
30336;DHT22;17142;47.990;7.846;2023-09-18T06:54:28;17.60;99.90
30336;DHT22;17142;47.990;7.846;2023-09-18T06:56:53;17.60;99.90
30336;DHT22;17142;47.990;7.846;2023-09-18T06:59:19;17.60;99.90
30336;DHT22;17142;47.990;7.846;2023-09-18T07:01:45;17.60;99.90
30336;DHT22;17142;47.990;7.846;2023-09-18T07:04:11;17.60;99.90
30336;DHT22;17142;47.990;7.846;2023-09-18T07:06:39;17.60;99.90
30336;DHT22;17142;47.990;7.846;2023-09-18T07:09:05;17.50;99.90
30336;DHT22;17142;47.990;7.846;2023-09-18T07:11:33;17.50;99.90
30336;DHT22;17142;47.990;7.846;2023-09-18T07:14:01;17.60;99.90
30336;DHT22;17142;47.990;7.846;2023-09-18T07:16:27;17.50;99.90
30336;DHT22;17142;47.990;7.846;2023-09-18T07:18:53;17.50;99.90
30336;DHT22;17142;47.990;7.846;2023-09-18T07:21:21;17.50;99.90
30336;DHT22;17142;47.990;7.846;2023-09-18T07:23:47;17.50;99.90
30336;DHT22;17142;47.990;7.846;2023-09-18T07:26:15;17.60;99.90
30336;DHT22;17142;47.990;7.846;2023-09-18T07:28:41;17.50;99.90
30336;DHT22;17142;47.990;7.846;2023-09-18T07:31:11;17.60;99.90
30336;DHT22;17142;47.990;7.846;2023-09-18T07:33:37;17.50;99.90
30336;DHT22;17142;47.990;7.846;2023-09-18T07:36:03;17.60;99.90
30336;DHT22;17142;47.990;7.846;2023-09-18T07:38:29;17.60;99.90
30336;DHT22;17142;47.990;7.846;2023-09-18T07:40:56;17.60;99.90
30336;DHT22;17142;47.990;7.846;2023-09-18T07:43:21;17.60;99.90
30336;DHT22;17142;47.990;7.846;2023-09-18T07:45:50;17.60;99.90
30336;DHT22;17142;47.990;7.846;2023-09-18T07:48:18;17.60;99.90
30336;DHT22;17142;47.990;7.846;2023-09-18T07:50:45;17.60;99.90
30336;DHT22;17142;47.990;7.846;2023-09-18T07:53:11;17.60;99.90
30336;DHT22;17142;47.990;7.846;2023-09-18T07:55:37;17.70;99.90
30336;DHT22;17142;47.990;7.846;2023-09-18T07:58:05;17.60;99.90
30336;DHT22;17142;47.990;7.846;2023-09-18T08:00:33;17.70;99.90
30336;DHT22;17142;47.990;7.846;2023-09-18T08:03:01;17.60;99.90
30336;DHT22;17142;47.990;7.846;2023-09-18T08:05:27;17.60;99.90
30336;DHT22;17142;47.990;7.846;2023-09-18T08:07:59;17.60;99.90
30336;DHT22;17142;47.990;7.846;2023-09-18T08:10:26;17.60;99.90
30336;DHT22;17142;47.990;7.846;2023-09-18T08:12:54;17.60;99.90
30336;DHT22;17142;47.990;7.846;2023-09-18T08:15:20;17.70;99.90
30336;DHT22;17142;47.990;7.846;2023-09-18T08:17:46;17.70;99.90
30336;DHT22;17142;47.990;7.846;2023-09-18T08:20:13;17.60;99.90
30336;DHT22;17142;47.990;7.846;2023-09-18T08:22:41;17.60;99.90
30336;DHT22;17142;47.990;7.846;2023-09-18T08:25:08;17.60;99.90
30336;DHT22;17142;47.990;7.846;2023-09-18T08:27:37;17.50;99.90
30336;DHT22;17142;47.990;7.846;2023-09-18T08:30:07;17.50;99.90
30336;DHT22;17142;47.990;7.846;2023-09-18T08:32:35;17.60;99.90
30336;DHT22;17142;47.990;7.846;2023-09-18T08:35:01;17.60;99.90
30336;DHT22;17142;47.990;7.846;2023-09-18T08:37:27;17.50;99.90
30336;DHT22;17142;47.990;7.846;2023-09-18T08:39:53;17.50;99.90
30336;DHT22;17142;47.990;7.846;2023-09-18T08:42:20;17.50;99.90
30336;DHT22;17142;47.990;7.846;2023-09-18T08:44:51;17.60;99.90
30336;DHT22;17142;47.990;7.846;2023-09-18T08:47:18;17.60;99.90
30336;DHT22;17142;47.990;7.846;2023-09-18T08:49:46;17.60;99.90
30336;DHT22;17142;47.990;7.846;2023-09-18T08:52:15;17.60;99.90
30336;DHT22;17142;47.990;7.846;2023-09-18T08:54:42;17.60;99.90
30336;DHT22;17142;47.990;7.846;2023-09-18T08:57:08;17.60;99.90
30336;DHT22;17142;47.990;7.846;2023-09-18T08:59:37;17.70;99.90
30336;DHT22;17142;47.990;7.846;2023-09-18T09:02:04;17.80;99.90
30336;DHT22;17142;47.990;7.846;2023-09-18T09:04:32;17.80;99.90
30336;DHT22;17142;47.990;7.846;2023-09-18T09:06:58;18.00;99.90
30336;DHT22;17142;47.990;7.846;2023-09-18T09:09:25;18.10;99.90
30336;DHT22;17142;47.990;7.846;2023-09-18T09:11:52;18.10;99.90
30336;DHT22;17142;47.990;7.846;2023-09-18T09:14:18;18.00;99.90
30336;DHT22;17142;47.990;7.846;2023-09-18T09:16:48;18.00;99.90
30336;DHT22;17142;47.990;7.846;2023-09-18T09:19:18;18.00;99.90
30336;DHT22;17142;47.990;7.846;2023-09-18T09:21:49;17.90;99.90
30336;DHT22;17142;47.990;7.846;2023-09-18T09:24:17;17.90;99.90
30336;DHT22;17142;47.990;7.846;2023-09-18T09:26:43;17.90;99.90
30336;DHT22;17142;47.990;7.846;2023-09-18T09:29:19;17.90;99.90
30336;DHT22;17142;47.990;7.846;2023-09-18T09:31:48;17.80;99.90
30336;DHT22;17142;47.990;7.846;2023-09-18T09:34:27;17.90;99.90
30336;DHT22;17142;47.990;7.846;2023-09-18T09:36:56;18.00;99.90
30336;DHT22;17142;47.990;7.846;2023-09-18T09:39:22;18.10;99.90
30336;DHT22;17142;47.990;7.846;2023-09-18T09:41:51;18.20;99.90
30336;DHT22;17142;47.990;7.846;2023-09-18T09:44:17;18.20;99.90
30336;DHT22;17142;47.990;7.846;2023-09-18T09:46:52;18.30;99.90
30336;DHT22;17142;47.990;7.846;2023-09-18T09:49:18;18.30;99.90
30336;DHT22;17142;47.990;7.846;2023-09-18T09:51:45;18.30;99.90
30336;DHT22;17142;47.990;7.846;2023-09-18T09:54:11;18.40;99.90
30336;DHT22;17142;47.990;7.846;2023-09-18T09:56:48;18.30;99.90
30336;DHT22;17142;47.990;7.846;2023-09-18T09:59:16;18.30;99.90
30336;DHT22;17142;47.990;7.846;2023-09-18T10:01:48;18.40;99.90
30336;DHT22;17142;47.990;7.846;2023-09-18T10:04:18;18.50;99.90
30336;DHT22;17142;47.990;7.846;2023-09-18T10:07:00;18.50;99.90
30336;DHT22;17142;47.990;7.846;2023-09-18T10:09:27;18.60;99.90
30336;DHT22;17142;47.990;7.846;2023-09-18T10:11:56;18.70;99.90
30336;DHT22;17142;47.990;7.846;2023-09-18T10:14:33;18.70;99.90
30336;DHT22;17142;47.990;7.846;2023-09-18T10:17:21;18.80;99.90
30336;DHT22;17142;47.990;7.846;2023-09-18T10:20:11;18.90;99.90
30336;DHT22;17142;47.990;7.846;2023-09-18T10:22:56;18.90;99.90
30336;DHT22;17142;47.990;7.846;2023-09-18T10:25:29;19.00;99.90
30336;DHT22;17142;47.990;7.846;2023-09-18T10:28:00;19.20;99.90
30336;DHT22;17142;47.990;7.846;2023-09-18T10:30:32;19.20;99.90
30336;DHT22;17142;47.990;7.846;2023-09-18T10:32:58;19.40;99.90
30336;DHT22;17142;47.990;7.846;2023-09-18T10:35:25;19.50;99.90
30336;DHT22;17142;47.990;7.846;2023-09-18T10:37:53;19.60;99.90
30336;DHT22;17142;47.990;7.846;2023-09-18T10:40:22;19.70;99.90
30336;DHT22;17142;47.990;7.846;2023-09-18T10:42:50;19.90;99.90
30336;DHT22;17142;47.990;7.846;2023-09-18T10:45:17;20.10;99.90
30336;DHT22;17142;47.990;7.846;2023-09-18T10:47:45;20.30;99.90
30336;DHT22;17142;47.990;7.846;2023-09-18T10:50:23;20.50;99.90
30336;DHT22;17142;47.990;7.846;2023-09-18T10:52:50;20.80;99.90
30336;DHT22;17142;47.990;7.846;2023-09-18T10:55:16;21.00;99.90
30336;DHT22;17142;47.990;7.846;2023-09-18T10:57:56;21.10;99.90
30336;DHT22;17142;47.990;7.846;2023-09-18T11:00:25;21.20;99.90
30336;DHT22;17142;47.990;7.846;2023-09-18T11:03:08;21.50;99.90
30336;DHT22;17142;47.990;7.846;2023-09-18T11:05:35;21.70;99.90
30336;DHT22;17142;47.990;7.846;2023-09-18T11:10:58;22.10;99.90
30336;DHT22;17142;47.990;7.846;2023-09-18T11:13:30;22.10;99.90
30336;DHT22;17142;47.990;7.846;2023-09-18T11:16:01;22.20;99.90
30336;DHT22;17142;47.990;7.846;2023-09-18T11:18:37;22.20;99.90
30336;DHT22;17142;47.990;7.846;2023-09-18T11:21:12;22.10;99.90
30336;DHT22;17142;47.990;7.846;2023-09-18T11:23:40;22.00;99.90
30336;DHT22;17142;47.990;7.846;2023-09-18T11:26:10;22.20;99.90
30336;DHT22;17142;47.990;7.846;2023-09-18T11:28:39;22.30;99.90
30336;DHT22;17142;47.990;7.846;2023-09-18T11:31:05;22.50;99.90
30336;DHT22;17142;47.990;7.846;2023-09-18T11:33:35;22.80;99.90
30336;DHT22;17142;47.990;7.846;2023-09-18T11:36:15;23.00;99.90
30336;DHT22;17142;47.990;7.846;2023-09-18T11:39:00;23.20;99.90
30336;DHT22;17142;47.990;7.846;2023-09-18T11:41:30;23.30;99.90
30336;DHT22;17142;47.990;7.846;2023-09-18T11:46:41;23.50;99.90
30336;DHT22;17142;47.990;7.846;2023-09-18T11:49:13;23.50;99.90
30336;DHT22;17142;47.990;7.846;2023-09-18T11:51:39;23.80;99.90
30336;DHT22;17142;47.990;7.846;2023-09-18T11:54:09;23.90;99.90
30336;DHT22;17142;47.990;7.846;2023-09-18T11:56:35;24.00;99.90
30336;DHT22;17142;47.990;7.846;2023-09-18T11:59:01;23.90;99.90
30336;DHT22;17142;47.990;7.846;2023-09-18T12:01:30;23.60;99.90
30336;DHT22;17142;47.990;7.846;2023-09-18T12:04:05;23.60;99.90
30336;DHT22;17142;47.990;7.846;2023-09-18T12:06:35;23.30;99.90
30336;DHT22;17142;47.990;7.846;2023-09-18T12:09:02;23.30;99.90
30336;DHT22;17142;47.990;7.846;2023-09-18T12:11:29;23.30;99.90
30336;DHT22;17142;47.990;7.846;2023-09-18T12:13:55;23.30;99.90
30336;DHT22;17142;47.990;7.846;2023-09-18T12:16:21;23.40;99.90
30336;DHT22;17142;47.990;7.846;2023-09-18T12:18:48;23.50;99.90
30336;DHT22;17142;47.990;7.846;2023-09-18T12:21:15;23.60;99.90
30336;DHT22;17142;47.990;7.846;2023-09-18T12:23:45;23.80;99.90
30336;DHT22;17142;47.990;7.846;2023-09-18T12:26:12;23.70;99.90
30336;DHT22;17142;47.990;7.846;2023-09-18T12:28:43;23.70;99.90
30336;DHT22;17142;47.990;7.846;2023-09-18T12:31:15;23.80;99.90
30336;DHT22;17142;47.990;7.846;2023-09-18T12:33:42;23.90;99.90
30336;DHT22;17142;47.990;7.846;2023-09-18T12:36:18;24.10;99.90
30336;DHT22;17142;47.990;7.846;2023-09-18T12:38:55;24.10;99.90
30336;DHT22;17142;47.990;7.846;2023-09-18T12:41:21;24.20;99.90
30336;DHT22;17142;47.990;7.846;2023-09-18T12:43:47;24.10;99.90
30336;DHT22;17142;47.990;7.846;2023-09-18T12:46:13;24.30;99.90
30336;DHT22;17142;47.990;7.846;2023-09-18T12:48:40;24.50;99.90
30336;DHT22;17142;47.990;7.846;2023-09-18T12:51:11;24.90;99.90
30336;DHT22;17142;47.990;7.846;2023-09-18T12:53:37;25.00;99.90
30336;DHT22;17142;47.990;7.846;2023-09-18T12:56:08;25.30;99.90
30336;DHT22;17142;47.990;7.846;2023-09-18T12:58:37;25.40;99.90
30336;DHT22;17142;47.990;7.846;2023-09-18T13:01:07;25.30;99.90
30336;DHT22;17142;47.990;7.846;2023-09-18T13:06:11;25.20;99.90
30336;DHT22;17142;47.990;7.846;2023-09-18T13:08:39;24.60;99.90
30336;DHT22;17142;47.990;7.846;2023-09-18T13:11:05;24.60;99.90
30336;DHT22;17142;47.990;7.846;2023-09-18T13:13:32;24.70;99.90
30336;DHT22;17142;47.990;7.846;2023-09-18T13:16:04;24.70;99.90
30336;DHT22;17142;47.990;7.846;2023-09-18T13:18:29;24.60;99.90
30336;DHT22;17142;47.990;7.846;2023-09-18T13:20:58;24.60;99.90
30336;DHT22;17142;47.990;7.846;2023-09-18T13:23:30;24.50;99.90
30336;DHT22;17142;47.990;7.846;2023-09-18T13:26:01;24.50;99.90
30336;DHT22;17142;47.990;7.846;2023-09-18T13:28:29;24.50;99.90
30336;DHT22;17142;47.990;7.846;2023-09-18T13:30:58;24.40;99.90
30336;DHT22;17142;47.990;7.846;2023-09-18T13:33:25;24.40;99.90
30336;DHT22;17142;47.990;7.846;2023-09-18T13:35:53;24.40;99.90
30336;DHT22;17142;47.990;7.846;2023-09-18T13:38:19;24.30;99.90
30336;DHT22;17142;47.990;7.846;2023-09-18T13:40:46;24.20;99.90
30336;DHT22;17142;47.990;7.846;2023-09-18T13:43:14;24.40;99.90
30336;DHT22;17142;47.990;7.846;2023-09-18T13:45:41;24.50;99.90
30336;DHT22;17142;47.990;7.846;2023-09-18T13:48:07;24.60;99.90
30336;DHT22;17142;47.990;7.846;2023-09-18T13:50:34;24.80;99.90
30336;DHT22;17142;47.990;7.846;2023-09-18T13:53:01;24.80;99.90
30336;DHT22;17142;47.990;7.846;2023-09-18T13:55:27;24.80;99.90
30336;DHT22;17142;47.990;7.846;2023-09-18T13:57:54;24.60;99.90
30336;DHT22;17142;47.990;7.846;2023-09-18T14:00:22;24.50;99.90
30336;DHT22;17142;47.990;7.846;2023-09-18T14:02:48;24.40;99.90
30336;DHT22;17142;47.990;7.846;2023-09-18T14:05:16;24.30;99.90
30336;DHT22;17142;47.990;7.846;2023-09-18T14:07:42;24.20;99.90
30336;DHT22;17142;47.990;7.846;2023-09-18T14:10:09;24.10;99.90
30336;DHT22;17142;47.990;7.846;2023-09-18T14:12:36;24.10;99.90
30336;DHT22;17142;47.990;7.846;2023-09-18T14:15:05;24.20;99.90
30336;DHT22;17142;47.990;7.846;2023-09-18T14:17:31;24.30;99.90
30336;DHT22;17142;47.990;7.846;2023-09-18T14:19:56;24.20;99.90
30336;DHT22;17142;47.990;7.846;2023-09-18T14:22:22;24.20;99.90
30336;DHT22;17142;47.990;7.846;2023-09-18T14:24:47;24.30;99.90
30336;DHT22;17142;47.990;7.846;2023-09-18T14:27:13;24.30;99.90
30336;DHT22;17142;47.990;7.846;2023-09-18T14:29:39;24.50;99.90
30336;DHT22;17142;47.990;7.846;2023-09-18T14:32:05;24.60;99.90
30336;DHT22;17142;47.990;7.846;2023-09-18T14:34:33;24.80;99.90
30336;DHT22;17142;47.990;7.846;2023-09-18T14:37:01;24.90;99.90
30336;DHT22;17142;47.990;7.846;2023-09-18T14:39:32;24.60;99.90
30336;DHT22;17142;47.990;7.846;2023-09-18T14:41:58;24.50;99.90
30336;DHT22;17142;47.990;7.846;2023-09-18T14:44:31;24.30;99.90
30336;DHT22;17142;47.990;7.846;2023-09-18T14:46:58;24.30;99.90
30336;DHT22;17142;47.990;7.846;2023-09-18T14:49:25;24.40;99.90
30336;DHT22;17142;47.990;7.846;2023-09-18T14:51:55;24.40;99.90
30336;DHT22;17142;47.990;7.846;2023-09-18T14:54:21;24.50;99.90
30336;DHT22;17142;47.990;7.846;2023-09-18T14:56:47;24.50;99.90
30336;DHT22;17142;47.990;7.846;2023-09-18T14:59:13;24.60;99.90
30336;DHT22;17142;47.990;7.846;2023-09-18T15:01:41;24.50;99.90
30336;DHT22;17142;47.990;7.846;2023-09-18T15:04:09;24.60;99.90
30336;DHT22;17142;47.990;7.846;2023-09-18T15:06:35;24.50;99.90
30336;DHT22;17142;47.990;7.846;2023-09-18T15:09:00;24.60;99.90
30336;DHT22;17142;47.990;7.846;2023-09-18T15:11:28;24.60;99.90
30336;DHT22;17142;47.990;7.846;2023-09-18T15:13:56;24.50;99.90
30336;DHT22;17142;47.990;7.846;2023-09-18T15:16:22;24.40;99.90
30336;DHT22;17142;47.990;7.846;2023-09-18T15:18:47;24.40;99.90
30336;DHT22;17142;47.990;7.846;2023-09-18T15:21:13;24.30;99.90
30336;DHT22;17142;47.990;7.846;2023-09-18T15:23:39;24.10;99.90
30336;DHT22;17142;47.990;7.846;2023-09-18T15:26:05;24.10;99.90
30336;DHT22;17142;47.990;7.846;2023-09-18T15:28:32;24.00;99.90
30336;DHT22;17142;47.990;7.846;2023-09-18T15:30:59;24.00;99.90
30336;DHT22;17142;47.990;7.846;2023-09-18T15:33:25;23.90;99.90
30336;DHT22;17142;47.990;7.846;2023-09-18T15:35:53;23.80;99.90
30336;DHT22;17142;47.990;7.846;2023-09-18T15:38:19;23.60;99.90
30336;DHT22;17142;47.990;7.846;2023-09-18T15:40:50;23.50;99.90
30336;DHT22;17142;47.990;7.846;2023-09-18T15:43:15;23.30;99.90
30336;DHT22;17142;47.990;7.846;2023-09-18T15:45:43;23.30;99.90
30336;DHT22;17142;47.990;7.846;2023-09-18T15:48:11;23.20;99.90
30336;DHT22;17142;47.990;7.846;2023-09-18T15:50:39;23.10;99.90
30336;DHT22;17142;47.990;7.846;2023-09-18T15:53:07;23.10;99.90
30336;DHT22;17142;47.990;7.846;2023-09-18T15:55:33;23.00;99.90
30336;DHT22;17142;47.990;7.846;2023-09-18T15:57:59;22.90;99.90
30336;DHT22;17142;47.990;7.846;2023-09-18T16:00:24;22.90;99.90
30336;DHT22;17142;47.990;7.846;2023-09-18T16:02:50;22.90;99.90
30336;DHT22;17142;47.990;7.846;2023-09-18T16:05:17;22.80;99.90
30336;DHT22;17142;47.990;7.846;2023-09-18T16:07:51;22.90;99.90
30336;DHT22;17142;47.990;7.846;2023-09-18T16:10:18;23.00;99.90
30336;DHT22;17142;47.990;7.846;2023-09-18T16:12:46;23.10;99.90
30336;DHT22;17142;47.990;7.846;2023-09-18T16:15:11;23.00;99.90
30336;DHT22;17142;47.990;7.846;2023-09-18T16:17:37;23.00;99.90
30336;DHT22;17142;47.990;7.846;2023-09-18T16:20:03;22.90;99.90
30336;DHT22;17142;47.990;7.846;2023-09-18T16:22:32;22.80;99.90
30336;DHT22;17142;47.990;7.846;2023-09-18T16:25:00;22.70;99.90
30336;DHT22;17142;47.990;7.846;2023-09-18T16:27:29;22.60;99.90
30336;DHT22;17142;47.990;7.846;2023-09-18T16:29:55;22.40;99.90
30336;DHT22;17142;47.990;7.846;2023-09-18T16:32:21;22.20;99.90
30336;DHT22;17142;47.990;7.846;2023-09-18T16:34:50;22.20;99.90
30336;DHT22;17142;47.990;7.846;2023-09-18T16:37:18;22.10;99.90
30336;DHT22;17142;47.990;7.846;2023-09-18T16:39:43;22.00;99.90
30336;DHT22;17142;47.990;7.846;2023-09-18T16:42:11;22.00;99.90
30336;DHT22;17142;47.990;7.846;2023-09-18T16:44:37;22.10;99.90
30336;DHT22;17142;47.990;7.846;2023-09-18T16:47:05;22.00;99.90
30336;DHT22;17142;47.990;7.846;2023-09-18T16:49:35;21.90;99.90
30336;DHT22;17142;47.990;7.846;2023-09-18T16:52:00;21.80;99.90
30336;DHT22;17142;47.990;7.846;2023-09-18T16:54:26;21.70;99.90
30336;DHT22;17142;47.990;7.846;2023-09-18T16:56:52;21.70;99.90
30336;DHT22;17142;47.990;7.846;2023-09-18T16:59:17;21.60;99.90
30336;DHT22;17142;47.990;7.846;2023-09-18T17:01:43;21.50;99.90
30336;DHT22;17142;47.990;7.846;2023-09-18T17:04:11;21.40;99.90
30336;DHT22;17142;47.990;7.846;2023-09-18T17:06:40;21.30;99.90
30336;DHT22;17142;47.990;7.846;2023-09-18T17:09:08;21.30;99.90
30336;DHT22;17142;47.990;7.846;2023-09-18T17:11:35;21.20;99.90
30336;DHT22;17142;47.990;7.846;2023-09-18T17:14:00;21.00;99.90
30336;DHT22;17142;47.990;7.846;2023-09-18T17:16:28;20.90;99.90
30336;DHT22;17142;47.990;7.846;2023-09-18T17:18:56;20.80;99.90
30336;DHT22;17142;47.990;7.846;2023-09-18T17:21:25;20.70;99.90
30336;DHT22;17142;47.990;7.846;2023-09-18T17:23:51;20.60;99.90
30336;DHT22;17142;47.990;7.846;2023-09-18T17:26:17;20.50;99.90
30336;DHT22;17142;47.990;7.846;2023-09-18T17:28:43;20.40;99.90
30336;DHT22;17142;47.990;7.846;2023-09-18T17:31:11;20.30;99.90
30336;DHT22;17142;47.990;7.846;2023-09-18T17:33:39;20.20;99.90
30336;DHT22;17142;47.990;7.846;2023-09-18T17:36:06;20.10;99.90
30336;DHT22;17142;47.990;7.846;2023-09-18T17:38:34;20.00;99.90
30336;DHT22;17142;47.990;7.846;2023-09-18T17:41:00;20.00;99.90
30336;DHT22;17142;47.990;7.846;2023-09-18T17:43:25;20.00;99.90
30336;DHT22;17142;47.990;7.846;2023-09-18T17:45:51;20.00;99.90
30336;DHT22;17142;47.990;7.846;2023-09-18T17:48:18;19.90;99.90
30336;DHT22;17142;47.990;7.846;2023-09-18T17:50:44;19.90;99.90
30336;DHT22;17142;47.990;7.846;2023-09-18T17:53:12;19.90;99.90
30336;DHT22;17142;47.990;7.846;2023-09-18T17:55:38;19.80;99.90
30336;DHT22;17142;47.990;7.846;2023-09-18T17:58:06;19.80;99.90
30336;DHT22;17142;47.990;7.846;2023-09-18T18:00:36;19.70;99.90
30336;DHT22;17142;47.990;7.846;2023-09-18T18:03:06;19.80;99.90
30336;DHT22;17142;47.990;7.846;2023-09-18T18:05:32;19.70;99.90
30336;DHT22;17142;47.990;7.846;2023-09-18T18:08:01;19.70;99.90
30336;DHT22;17142;47.990;7.846;2023-09-18T18:10:26;19.60;99.90
30336;DHT22;17142;47.990;7.846;2023-09-18T18:12:54;19.60;99.90
30336;DHT22;17142;47.990;7.846;2023-09-18T18:15:20;19.60;99.90
30336;DHT22;17142;47.990;7.846;2023-09-18T18:17:49;19.60;99.90
30336;DHT22;17142;47.990;7.846;2023-09-18T18:20:17;19.50;99.90
30336;DHT22;17142;47.990;7.846;2023-09-18T18:22:46;19.50;99.90
30336;DHT22;17142;47.990;7.846;2023-09-18T18:25:13;19.50;99.90
30336;DHT22;17142;47.990;7.846;2023-09-18T18:27:41;19.60;99.90
30336;DHT22;17142;47.990;7.846;2023-09-18T18:30:12;19.90;99.90
30336;DHT22;17142;47.990;7.846;2023-09-18T18:32:40;20.00;99.90
30336;DHT22;17142;47.990;7.846;2023-09-18T18:35:10;19.90;99.90
30336;DHT22;17142;47.990;7.846;2023-09-18T18:37:35;19.90;99.90
30336;DHT22;17142;47.990;7.846;2023-09-18T18:40:03;19.70;99.90
30336;DHT22;17142;47.990;7.846;2023-09-18T18:42:32;19.70;99.90
30336;DHT22;17142;47.990;7.846;2023-09-18T18:45:00;19.50;99.90
30336;DHT22;17142;47.990;7.846;2023-09-18T18:47:38;19.40;99.90
30336;DHT22;17142;47.990;7.846;2023-09-18T18:50:04;19.40;99.90
30336;DHT22;17142;47.990;7.846;2023-09-18T18:52:30;18.80;99.90
30336;DHT22;17142;47.990;7.846;2023-09-18T18:54:55;17.90;99.90
30336;DHT22;17142;47.990;7.846;2023-09-18T18:57:21;17.50;99.90
30336;DHT22;17142;47.990;7.846;2023-09-18T18:59:48;17.30;99.90
30336;DHT22;17142;47.990;7.846;2023-09-18T19:02:13;17.10;99.90
30336;DHT22;17142;47.990;7.846;2023-09-18T19:04:39;17.00;99.90
30336;DHT22;17142;47.990;7.846;2023-09-18T19:07:04;17.00;99.90
30336;DHT22;17142;47.990;7.846;2023-09-18T19:09:31;16.90;99.90
30336;DHT22;17142;47.990;7.846;2023-09-18T19:11:59;16.90;99.90
30336;DHT22;17142;47.990;7.846;2023-09-18T19:14:25;16.90;99.90
30336;DHT22;17142;47.990;7.846;2023-09-18T19:16:54;16.80;99.90
30336;DHT22;17142;47.990;7.846;2023-09-18T19:19:19;16.80;99.90
30336;DHT22;17142;47.990;7.846;2023-09-18T19:21:45;16.80;99.90
30336;DHT22;17142;47.990;7.846;2023-09-18T19:24:10;16.70;99.90
30336;DHT22;17142;47.990;7.846;2023-09-18T19:26:38;16.70;99.90
30336;DHT22;17142;47.990;7.846;2023-09-18T19:29:04;16.70;99.90
30336;DHT22;17142;47.990;7.846;2023-09-18T19:31:29;16.70;99.90
30336;DHT22;17142;47.990;7.846;2023-09-18T19:33:55;16.80;99.90
30336;DHT22;17142;47.990;7.846;2023-09-18T19:36:21;16.80;99.90
30336;DHT22;17142;47.990;7.846;2023-09-18T19:38:47;16.70;99.90
30336;DHT22;17142;47.990;7.846;2023-09-18T19:41:12;16.70;99.90
30336;DHT22;17142;47.990;7.846;2023-09-18T19:43:40;16.70;99.90
30336;DHT22;17142;47.990;7.846;2023-09-18T19:46:06;16.70;99.90
30336;DHT22;17142;47.990;7.846;2023-09-18T19:48:32;16.70;99.90
30336;DHT22;17142;47.990;7.846;2023-09-18T19:51:00;16.70;99.90
30336;DHT22;17142;47.990;7.846;2023-09-18T19:53:27;16.80;99.90
30336;DHT22;17142;47.990;7.846;2023-09-18T19:55:55;16.80;99.90